sensor_id;sensor_type;location;lat;lon;timestamp;temperature;humidity
30069;DHT22;16894;49.456;10.644;2024-03-23T15:54:02;7.90;1.00
30069;DHT22;16894;49.456;10.644;2024-03-23T15:56:29;7.50;99.90
30069;DHT22;16894;49.456;10.644;2024-03-23T15:58:55;7.60;1.00
30069;DHT22;16894;49.456;10.644;2024-03-23T16:01:20;7.50;99.90
30069;DHT22;16894;49.456;10.644;2024-03-23T16:03:48;7.50;99.90
30069;DHT22;16894;49.456;10.644;2024-03-23T16:06:14;7.40;99.90
30069;DHT22;16894;49.456;10.644;2024-03-23T16:08:39;7.30;1.00
30069;DHT22;16894;49.456;10.644;2024-03-23T16:11:06;7.10;99.90
30069;DHT22;16894;49.456;10.644;2024-03-23T16:13:33;7.10;99.90
30069;DHT22;16894;49.456;10.644;2024-03-23T16:16:00;7.10;1.00
30069;DHT22;16894;49.456;10.644;2024-03-23T16:18:29;7.10;99.90
30069;DHT22;16894;49.456;10.644;2024-03-23T16:20:55;7.00;99.90
30069;DHT22;16894;49.456;10.644;2024-03-23T16:23:21;6.90;99.90
30069;DHT22;16894;49.456;10.644;2024-03-23T16:25:51;6.80;99.90
30069;DHT22;16894;49.456;10.644;2024-03-23T16:31:04;6.80;99.90
30069;DHT22;16894;49.456;10.644;2024-03-23T16:33:32;6.80;1.00
30069;DHT22;16894;49.456;10.644;2024-03-23T16:38:25;6.60;99.90
30069;DHT22;16894;49.456;10.644;2024-03-23T16:40:59;6.60;99.90
30069;DHT22;16894;49.456;10.644;2024-03-23T16:43:26;6.50;99.90
30069;DHT22;16894;49.456;10.644;2024-03-23T16:46:01;6.50;99.90
30069;DHT22;16894;49.456;10.644;2024-03-23T16:48:28;6.50;94.80
30069;DHT22;16894;49.456;10.644;2024-03-23T16:50:56;6.50;74.40
30069;DHT22;16894;49.456;10.644;2024-03-23T16:53:22;6.60;1.00
30069;DHT22;16894;49.456;10.644;2024-03-23T16:55:54;6.70;99.90
30069;DHT22;16894;49.456;10.644;2024-03-23T16:58:21;6.80;99.90
30069;DHT22;16894;49.456;10.644;2024-03-23T17:00:46;6.70;99.90
30069;DHT22;16894;49.456;10.644;2024-03-23T17:03:14;6.60;99.90
30069;DHT22;16894;49.456;10.644;2024-03-23T17:05:39;6.60;1.00
30069;DHT22;16894;49.456;10.644;2024-03-23T17:08:05;6.50;99.90
30069;DHT22;16894;49.456;10.644;2024-03-23T17:10:31;6.40;99.90
30069;DHT22;16894;49.456;10.644;2024-03-23T17:12:58;6.30;99.90
30069;DHT22;16894;49.456;10.644;2024-03-23T17:15:23;6.30;99.90
30069;DHT22;16894;49.456;10.644;2024-03-23T17:17:49;6.30;51.60
30069;DHT22;16894;49.456;10.644;2024-03-23T17:20:15;6.30;1.00
30069;DHT22;16894;49.456;10.644;2024-03-23T17:22:41;6.20;99.90
30069;DHT22;16894;49.456;10.644;2024-03-23T17:25:07;6.10;92.70
30069;DHT22;16894;49.456;10.644;2024-03-23T17:27:36;6.10;1.00
30069;DHT22;16894;49.456;10.644;2024-03-23T17:30:02;6.00;99.90
30069;DHT22;16894;49.456;10.644;2024-03-23T17:32:28;5.90;1.00
30069;DHT22;16894;49.456;10.644;2024-03-23T17:34:54;5.80;1.00
30069;DHT22;16894;49.456;10.644;2024-03-23T17:37:20;5.70;99.90
30069;DHT22;16894;49.456;10.644;2024-03-23T17:39:45;5.70;99.90
30069;DHT22;16894;49.456;10.644;2024-03-23T17:42:11;5.70;99.90
30069;DHT22;16894;49.456;10.644;2024-03-23T17:44:38;5.70;38.90
30069;DHT22;16894;49.456;10.644;2024-03-23T17:47:04;5.60;28.70
30069;DHT22;16894;49.456;10.644;2024-03-23T17:49:29;5.60;99.90
30069;DHT22;16894;49.456;10.644;2024-03-23T17:51:59;5.60;99.90
30069;DHT22;16894;49.456;10.644;2024-03-23T17:54:26;5.60;1.00
30069;DHT22;16894;49.456;10.644;2024-03-23T17:56:52;5.60;62.50
30069;DHT22;16894;49.456;10.644;2024-03-23T17:59:20;5.60;99.90
30069;DHT22;16894;49.456;10.644;2024-03-23T18:01:46;5.60;99.90
30069;DHT22;16894;49.456;10.644;2024-03-23T18:04:12;5.60;99.90
30069;DHT22;16894;49.456;10.644;2024-03-23T18:06:38;5.60;99.90
30069;DHT22;16894;49.456;10.644;2024-03-23T18:09:04;5.60;1.00
30069;DHT22;16894;49.456;10.644;2024-03-23T18:11:30;5.60;1.00
30069;DHT22;16894;49.456;10.644;2024-03-23T18:13:55;5.50;99.90
30069;DHT22;16894;49.456;10.644;2024-03-23T18:16:21;5.50;1.00
30069;DHT22;16894;49.456;10.644;2024-03-23T18:18:47;5.60;99.90
30069;DHT22;16894;49.456;10.644;2024-03-23T18:21:13;5.60;63.70
30069;DHT22;16894;49.456;10.644;2024-03-23T18:23:39;5.60;1.00
30069;DHT22;16894;49.456;10.644;2024-03-23T18:26:04;5.40;99.90
30069;DHT22;16894;49.456;10.644;2024-03-23T18:28:30;5.10;99.90
30069;DHT22;16894;49.456;10.644;2024-03-23T18:30:59;4.70;99.90
30069;DHT22;16894;49.456;10.644;2024-03-23T18:33:27;4.10;99.90
30069;DHT22;16894;49.456;10.644;2024-03-23T18:35:53;3.80;1.00
30069;DHT22;16894;49.456;10.644;2024-03-23T18:38:19;3.80;1.00
30069;DHT22;16894;49.456;10.644;2024-03-23T18:40:48;3.80;1.00
30069;DHT22;16894;49.456;10.644;2024-03-23T18:43:15;3.80;14.30
30069;DHT22;16894;49.456;10.644;2024-03-23T18:45:51;3.80;1.00
30069;DHT22;16894;49.456;10.644;2024-03-23T18:48:20;3.80;13.70
30069;DHT22;16894;49.456;10.644;2024-03-23T18:50:46;3.80;4.70
30069;DHT22;16894;49.456;10.644;2024-03-23T18:53:12;3.70;12.30
30069;DHT22;16894;49.456;10.644;2024-03-23T18:55:40;3.70;19.90
30069;DHT22;16894;49.456;10.644;2024-03-23T18:58:07;3.70;6.70
30069;DHT22;16894;49.456;10.644;2024-03-23T19:00:33;3.60;1.00
30069;DHT22;16894;49.456;10.644;2024-03-23T19:02:59;3.60;3.10
30069;DHT22;16894;49.456;10.644;2024-03-23T19:05:25;3.70;23.90
30069;DHT22;16894;49.456;10.644;2024-03-23T19:07:51;3.70;30.60
30069;DHT22;16894;49.456;10.644;2024-03-23T19:10:17;3.70;34.20
30069;DHT22;16894;49.456;10.644;2024-03-23T19:12:49;3.70;25.70
30069;DHT22;16894;49.456;10.644;2024-03-23T19:15:15;3.60;15.00
30069;DHT22;16894;49.456;10.644;2024-03-23T19:17:40;3.70;16.30
30069;DHT22;16894;49.456;10.644;2024-03-23T19:20:06;3.60;1.10
30069;DHT22;16894;49.456;10.644;2024-03-23T19:22:32;3.50;1.00
30069;DHT22;16894;49.456;10.644;2024-03-23T19:24:58;3.50;6.80
30069;DHT22;16894;49.456;10.644;2024-03-23T19:27:28;3.50;1.00
30069;DHT22;16894;49.456;10.644;2024-03-23T19:29:53;3.40;1.00
30069;DHT22;16894;49.456;10.644;2024-03-23T19:32:19;3.40;1.00
30069;DHT22;16894;49.456;10.644;2024-03-23T19:34:45;3.30;1.00
30069;DHT22;16894;49.456;10.644;2024-03-23T19:37:11;3.40;1.00
30069;DHT22;16894;49.456;10.644;2024-03-23T19:39:37;3.40;1.00
30069;DHT22;16894;49.456;10.644;2024-03-23T19:42:05;3.30;1.00
30069;DHT22;16894;49.456;10.644;2024-03-23T19:44:32;3.30;1.00
30069;DHT22;16894;49.456;10.644;2024-03-23T19:46:58;3.20;1.00
30069;DHT22;16894;49.456;10.644;2024-03-23T19:49:23;3.20;1.00
30069;DHT22;16894;49.456;10.644;2024-03-23T19:51:52;3.20;1.00
30069;DHT22;16894;49.456;10.644;2024-03-23T19:54:18;3.10;1.00
30069;DHT22;16894;49.456;10.644;2024-03-23T19:56:47;3.10;1.00
30069;DHT22;16894;49.456;10.644;2024-03-23T19:59:12;3.10;1.00
30069;DHT22;16894;49.456;10.644;2024-03-23T20:01:38;3.10;1.00
30069;DHT22;16894;49.456;10.644;2024-03-23T20:04:04;3.10;1.00
30069;DHT22;16894;49.456;10.644;2024-03-23T20:06:30;3.00;1.00
30069;DHT22;16894;49.456;10.644;2024-03-23T20:08:56;3.00;1.00
30069;DHT22;16894;49.456;10.644;2024-03-23T20:11:25;3.00;1.00
30069;DHT22;16894;49.456;10.644;2024-03-23T20:13:51;3.00;1.00
30069;DHT22;16894;49.456;10.644;2024-03-23T20:16:17;3.00;1.00
30069;DHT22;16894;49.456;10.644;2024-03-23T20:18:43;2.90;1.00
30069;DHT22;16894;49.456;10.644;2024-03-23T20:21:09;2.90;1.00
30069;DHT22;16894;49.456;10.644;2024-03-23T20:23:35;3.00;1.00
30069;DHT22;16894;49.456;10.644;2024-03-23T20:26:01;2.90;1.00
30069;DHT22;16894;49.456;10.644;2024-03-23T20:28:28;2.90;1.00
30069;DHT22;16894;49.456;10.644;2024-03-23T20:30:58;2.90;1.00
30069;DHT22;16894;49.456;10.644;2024-03-23T20:33:25;2.90;1.00
30069;DHT22;16894;49.456;10.644;2024-03-23T20:35:51;2.90;1.00
30069;DHT22;16894;49.456;10.644;2024-03-23T20:38:18;2.90;4.50
30069;DHT22;16894;49.456;10.644;2024-03-23T20:40:46;2.90;5.00
30069;DHT22;16894;49.456;10.644;2024-03-23T20:43:16;2.90;1.00
30069;DHT22;16894;49.456;10.644;2024-03-23T20:45:42;2.90;1.00
30069;DHT22;16894;49.456;10.644;2024-03-23T20:48:08;2.90;1.00
30069;DHT22;16894;49.456;10.644;2024-03-23T20:50:33;2.90;1.00
30069;DHT22;16894;49.456;10.644;2024-03-23T20:52:59;3.00;1.00
30069;DHT22;16894;49.456;10.644;2024-03-23T20:55:26;3.00;1.00
30069;DHT22;16894;49.456;10.644;2024-03-23T20:57:52;2.90;2.20
30069;DHT22;16894;49.456;10.644;2024-03-23T21:00:19;2.90;5.60
30069;DHT22;16894;49.456;10.644;2024-03-23T21:02:44;2.90;3.10
30069;DHT22;16894;49.456;10.644;2024-03-23T21:05:10;2.90;1.00
30069;DHT22;16894;49.456;10.644;2024-03-23T21:07:36;2.90;1.00
30069;DHT22;16894;49.456;10.644;2024-03-23T21:10:02;2.90;2.80
30069;DHT22;16894;49.456;10.644;2024-03-23T21:12:27;2.90;6.50
30069;DHT22;16894;49.456;10.644;2024-03-23T21:14:53;2.90;1.00
30069;DHT22;16894;49.456;10.644;2024-03-23T21:17:19;2.90;5.20
30069;DHT22;16894;49.456;10.644;2024-03-23T21:19:48;2.90;11.40
30069;DHT22;16894;49.456;10.644;2024-03-23T21:22:15;2.80;1.00
30069;DHT22;16894;49.456;10.644;2024-03-23T21:24:41;2.80;1.00
30069;DHT22;16894;49.456;10.644;2024-03-23T21:27:09;2.80;1.00
30069;DHT22;16894;49.456;10.644;2024-03-23T21:29:35;2.80;1.00
30069;DHT22;16894;49.456;10.644;2024-03-23T21:32:00;2.90;1.00
30069;DHT22;16894;49.456;10.644;2024-03-23T21:34:28;2.90;1.00
30069;DHT22;16894;49.456;10.644;2024-03-23T21:36:54;2.90;8.00
30069;DHT22;16894;49.456;10.644;2024-03-23T21:39:20;2.90;1.10
30069;DHT22;16894;49.456;10.644;2024-03-23T21:41:46;2.90;1.00
30069;DHT22;16894;49.456;10.644;2024-03-23T21:44:15;2.90;1.00
30069;DHT22;16894;49.456;10.644;2024-03-23T21:46:40;2.90;1.00
30069;DHT22;16894;49.456;10.644;2024-03-23T21:49:06;2.90;1.00
30069;DHT22;16894;49.456;10.644;2024-03-23T21:51:32;3.00;1.00
30069;DHT22;16894;49.456;10.644;2024-03-23T21:54:00;3.00;1.00
30069;DHT22;16894;49.456;10.644;2024-03-23T21:56:28;3.00;1.00
30069;DHT22;16894;49.456;10.644;2024-03-23T21:58:57;3.10;1.00
30069;DHT22;16894;49.456;10.644;2024-03-23T22:01:22;3.10;1.00
30069;DHT22;16894;49.456;10.644;2024-03-23T22:03:50;3.20;1.00
30069;DHT22;16894;49.456;10.644;2024-03-23T22:06:17;3.20;1.00
30069;DHT22;16894;49.456;10.644;2024-03-23T22:08:43;3.30;1.00
30069;DHT22;16894;49.456;10.644;2024-03-23T22:11:09;3.30;1.00
30069;DHT22;16894;49.456;10.644;2024-03-23T22:13:34;3.40;1.00
30069;DHT22;16894;49.456;10.644;2024-03-23T22:16:00;3.50;1.00
30069;DHT22;16894;49.456;10.644;2024-03-23T22:18:26;3.50;1.00
30069;DHT22;16894;49.456;10.644;2024-03-23T22:20:56;3.50;1.00
30069;DHT22;16894;49.456;10.644;2024-03-23T22:23:22;3.70;1.00
30069;DHT22;16894;49.456;10.644;2024-03-23T22:25:51;3.70;1.00
30069;DHT22;16894;49.456;10.644;2024-03-23T22:28:18;3.70;1.00
30069;DHT22;16894;49.456;10.644;2024-03-23T22:30:58;3.70;1.00
30069;DHT22;16894;49.456;10.644;2024-03-23T22:33:24;3.80;1.00
30069;DHT22;16894;49.456;10.644;2024-03-23T22:35:53;3.80;1.00
30069;DHT22;16894;49.456;10.644;2024-03-23T22:38:19;3.80;1.00
30069;DHT22;16894;49.456;10.644;2024-03-23T22:40:58;3.70;1.00
30069;DHT22;16894;49.456;10.644;2024-03-23T22:43:25;3.70;99.90
30069;DHT22;16894;49.456;10.644;2024-03-23T22:46:01;3.70;1.00
30069;DHT22;16894;49.456;10.644;2024-03-23T22:48:29;3.70;99.90
30069;DHT22;16894;49.456;10.644;2024-03-23T22:50:58;3.60;99.90
30069;DHT22;16894;49.456;10.644;2024-03-23T22:53:25;3.70;99.90
30069;DHT22;16894;49.456;10.644;2024-03-23T22:55:56;3.70;99.90
30069;DHT22;16894;49.456;10.644;2024-03-23T22:58:23;3.70;99.90
30069;DHT22;16894;49.456;10.644;2024-03-23T23:00:50;3.60;99.90
30069;DHT22;16894;49.456;10.644;2024-03-23T23:03:19;3.70;99.90
30069;DHT22;16894;49.456;10.644;2024-03-23T23:05:56;3.70;99.90
30069;DHT22;16894;49.456;10.644;2024-03-23T23:08:22;3.70;99.90
30069;DHT22;16894;49.456;10.644;2024-03-23T23:10:48;3.80;99.90
30069;DHT22;16894;49.456;10.644;2024-03-23T23:13:15;3.80;99.90
30069;DHT22;16894;49.456;10.644;2024-03-23T23:15:44;3.80;99.90
30069;DHT22;16894;49.456;10.644;2024-03-23T23:18:10;3.80;99.90
30069;DHT22;16894;49.456;10.644;2024-03-23T23:20:40;3.90;99.90
30069;DHT22;16894;49.456;10.644;2024-03-23T23:23:06;3.90;99.90
30069;DHT22;16894;49.456;10.644;2024-03-23T23:25:31;4.00;99.90
30069;DHT22;16894;49.456;10.644;2024-03-23T23:27:58;3.90;99.90
30069;DHT22;16894;49.456;10.644;2024-03-23T23:30:23;4.00;99.90
30069;DHT22;16894;49.456;10.644;2024-03-23T23:32:49;3.90;99.90
30069;DHT22;16894;49.456;10.644;2024-03-23T23:35:15;4.00;99.90
30069;DHT22;16894;49.456;10.644;2024-03-23T23:37:40;3.90;99.90
30069;DHT22;16894;49.456;10.644;2024-03-23T23:40:07;3.90;99.90
30069;DHT22;16894;49.456;10.644;2024-03-23T23:42:32;3.80;99.90
30069;DHT22;16894;49.456;10.644;2024-03-23T23:44:58;3.80;99.90
30069;DHT22;16894;49.456;10.644;2024-03-23T23:47:24;3.70;99.90
30069;DHT22;16894;49.456;10.644;2024-03-23T23:49:50;3.70;99.90
30069;DHT22;16894;49.456;10.644;2024-03-23T23:52:15;3.60;99.90
30069;DHT22;16894;49.456;10.644;2024-03-23T23:54:41;3.60;99.90
30069;DHT22;16894;49.456;10.644;2024-03-23T23:57:07;3.50;99.90
30069;DHT22;16894;49.456;10.644;2024-03-23T23:59:33;3.60;99.90
